sensor_id;sensor_type;location;lat;lon;timestamp;pressure;altitude;pressure_sealevel;temperature;humidity
82035;BME280;71599;49.892;18.914;2023-07-31T00:04:38;98319.22;;;17.27;66.75
82035;BME280;71599;49.892;18.914;2023-07-31T00:09:39;98323.19;;;17.26;66.49
82035;BME280;71599;49.892;18.914;2023-07-31T00:14:42;98315.00;;;17.19;66.92
82035;BME280;71599;49.892;18.914;2023-07-31T00:19:43;98313.88;;;17.13;67.61
82035;BME280;71599;49.892;18.914;2023-07-31T00:24:44;98328.06;;;17.15;67.57
82035;BME280;71599;49.892;18.914;2023-07-31T00:29:46;98318.94;;;17.18;67.40
82035;BME280;71599;49.892;18.914;2023-07-31T00:34:47;98333.59;;;17.15;67.51
82035;BME280;71599;49.892;18.914;2023-07-31T00:39:48;98324.63;;;17.03;69.65
82035;BME280;71599;49.892;18.914;2023-07-31T00:44:50;98333.38;;;16.98;68.30
82035;BME280;71599;49.892;18.914;2023-07-31T00:49:51;98333.84;;;16.93;68.35
82035;BME280;71599;49.892;18.914;2023-07-31T00:54:52;98329.56;;;16.89;68.24
82035;BME280;71599;49.892;18.914;2023-07-31T00:59:55;98336.22;;;16.91;68.47
82035;BME280;71599;49.892;18.914;2023-07-31T01:04:56;98339.31;;;16.97;68.20
82035;BME280;71599;49.892;18.914;2023-07-31T01:10:02;98340.16;;;16.94;68.66
82035;BME280;71599;49.892;18.914;2023-07-31T01:15:08;98332.34;;;16.85;68.86
82035;BME280;71599;49.892;18.914;2023-07-31T01:20:12;98340.69;;;16.82;68.95
82035;BME280;71599;49.892;18.914;2023-07-31T01:25:26;98341.84;;;16.84;69.83
82035;BME280;71599;49.892;18.914;2023-07-31T01:30:39;98350.53;;;16.79;69.98
82035;BME280;71599;49.892;18.914;2023-07-31T01:35:44;98360.78;;;16.82;69.22
82035;BME280;71599;49.892;18.914;2023-07-31T01:40:45;98362.31;;;16.87;69.23
82035;BME280;71599;49.892;18.914;2023-07-31T01:45:53;98361.16;;;16.84;70.25
82035;BME280;71599;49.892;18.914;2023-07-31T01:50:53;98363.88;;;16.88;70.29
82035;BME280;71599;49.892;18.914;2023-07-31T01:55:54;98363.38;;;16.96;69.80
82035;BME280;71599;49.892;18.914;2023-07-31T02:00:57;98359.47;;;16.94;70.88
82035;BME280;71599;49.892;18.914;2023-07-31T02:05:58;98368.53;;;16.94;71.01
82035;BME280;71599;49.892;18.914;2023-07-31T02:10:59;98369.66;;;17.00;69.62
82035;BME280;71599;49.892;18.914;2023-07-31T02:16:01;98377.88;;;17.04;70.77
82035;BME280;71599;49.892;18.914;2023-07-31T02:21:02;98390.03;;;17.10;69.29
82035;BME280;71599;49.892;18.914;2023-07-31T02:26:03;98388.84;;;17.11;69.32
82035;BME280;71599;49.892;18.914;2023-07-31T02:31:05;98387.31;;;17.07;69.64
82035;BME280;71599;49.892;18.914;2023-07-31T02:36:06;98394.44;;;17.04;69.70
82035;BME280;71599;49.892;18.914;2023-07-31T02:41:07;98391.59;;;17.11;69.16
82035;BME280;71599;49.892;18.914;2023-07-31T02:46:09;98397.44;;;17.20;69.03
82035;BME280;71599;49.892;18.914;2023-07-31T02:51:10;98393.09;;;17.19;69.34
82035;BME280;71599;49.892;18.914;2023-07-31T02:56:11;98391.44;;;17.25;69.30
82035;BME280;71599;49.892;18.914;2023-07-31T03:01:14;98395.41;;;17.24;68.89
82035;BME280;71599;49.892;18.914;2023-07-31T03:06:14;98402.16;;;17.20;69.72
82035;BME280;71599;49.892;18.914;2023-07-31T03:11:15;98413.31;;;17.09;70.22
82035;BME280;71599;49.892;18.914;2023-07-31T03:16:18;98420.72;;;16.82;70.74
82035;BME280;71599;49.892;18.914;2023-07-31T03:21:19;98421.63;;;16.68;71.81
82035;BME280;71599;49.892;18.914;2023-07-31T03:26:20;98428.75;;;16.66;70.08
82035;BME280;71599;49.892;18.914;2023-07-31T03:31:22;98437.66;;;16.36;70.35
82035;BME280;71599;49.892;18.914;2023-07-31T03:36:23;98426.78;;;16.14;70.20
82035;BME280;71599;49.892;18.914;2023-07-31T03:41:24;98436.69;;;16.05;68.87
82035;BME280;71599;49.892;18.914;2023-07-31T03:46:26;98429.13;;;16.16;69.91
82035;BME280;71599;49.892;18.914;2023-07-31T03:51:27;98432.97;;;16.25;69.91
82035;BME280;71599;49.892;18.914;2023-07-31T03:56:28;98431.00;;;16.30;70.04
82035;BME280;71599;49.892;18.914;2023-07-31T04:01:31;98434.50;;;16.34;70.28
82035;BME280;71599;49.892;18.914;2023-07-31T04:06:32;98429.72;;;16.38;71.45
82035;BME280;71599;49.892;18.914;2023-07-31T04:11:33;98440.03;;;16.34;70.50
82035;BME280;71599;49.892;18.914;2023-07-31T04:16:35;98442.75;;;16.37;70.74
82035;BME280;71599;49.892;18.914;2023-07-31T04:21:36;98444.72;;;16.37;70.65
82035;BME280;71599;49.892;18.914;2023-07-31T04:26:37;98445.19;;;16.24;70.95
82035;BME280;71599;49.892;18.914;2023-07-31T04:31:39;98450.78;;;16.17;71.24
82035;BME280;71599;49.892;18.914;2023-07-31T04:36:40;98460.59;;;16.18;71.43
82035;BME280;71599;49.892;18.914;2023-07-31T04:41:41;98454.69;;;16.23;72.14
82035;BME280;71599;49.892;18.914;2023-07-31T04:46:43;98460.81;;;16.45;71.74
82035;BME280;71599;49.892;18.914;2023-07-31T04:51:44;98467.78;;;16.60;71.04
82035;BME280;71599;49.892;18.914;2023-07-31T04:56:45;98469.31;;;16.69;71.71
82035;BME280;71599;49.892;18.914;2023-07-31T05:01:47;98466.53;;;16.72;71.31
82035;BME280;71599;49.892;18.914;2023-07-31T05:06:48;98459.84;;;16.70;71.50
82035;BME280;71599;49.892;18.914;2023-07-31T05:11:49;98465.66;;;16.82;70.50
82035;BME280;71599;49.892;18.914;2023-07-31T05:16:52;98474.50;;;17.04;70.36
82035;BME280;71599;49.892;18.914;2023-07-31T05:21:53;98461.78;;;17.14;69.39
82035;BME280;71599;49.892;18.914;2023-07-31T05:26:53;98461.19;;;17.33;69.56
82035;BME280;71599;49.892;18.914;2023-07-31T05:31:56;98451.19;;;17.46;68.09
82035;BME280;71599;49.892;18.914;2023-07-31T05:36:57;98453.50;;;17.81;67.37
82035;BME280;71599;49.892;18.914;2023-07-31T05:41:58;98449.06;;;18.14;66.38
82035;BME280;71599;49.892;18.914;2023-07-31T05:47:00;98449.94;;;18.61;65.12
82035;BME280;71599;49.892;18.914;2023-07-31T05:52:01;98451.28;;;18.77;65.36
82035;BME280;71599;49.892;18.914;2023-07-31T05:57:03;98450.59;;;18.92;62.65
82035;BME280;71599;49.892;18.914;2023-07-31T06:02:06;98449.53;;;19.29;62.01
82035;BME280;71599;49.892;18.914;2023-07-31T06:07:07;98461.28;;;19.57;60.38
82035;BME280;71599;49.892;18.914;2023-07-31T06:12:08;98455.28;;;19.78;61.57
82035;BME280;71599;49.892;18.914;2023-07-31T06:17:10;98457.75;;;19.92;57.75
82035;BME280;71599;49.892;18.914;2023-07-31T06:22:11;98457.84;;;20.24;57.62
82035;BME280;71599;49.892;18.914;2023-07-31T06:27:12;98452.81;;;20.52;56.53
82035;BME280;71599;49.892;18.914;2023-07-31T06:32:15;98457.09;;;20.73;56.24
82035;BME280;71599;49.892;18.914;2023-07-31T06:37:16;98456.94;;;21.54;54.08
82035;BME280;71599;49.892;18.914;2023-07-31T06:42:17;98454.66;;;22.79;50.84
82035;BME280;71599;49.892;18.914;2023-07-31T06:47:19;98458.81;;;23.86;47.75
82035;BME280;71599;49.892;18.914;2023-07-31T06:52:20;98446.13;;;24.65;45.20
82035;BME280;71599;49.892;18.914;2023-07-31T06:57:21;98464.38;;;23.86;47.97
82035;BME280;71599;49.892;18.914;2023-07-31T07:02:23;98465.13;;;23.78;46.75
82035;BME280;71599;49.892;18.914;2023-07-31T07:07:25;98464.63;;;24.01;46.30
82035;BME280;71599;49.892;18.914;2023-07-31T07:12:26;98466.03;;;24.28;45.73
82035;BME280;71599;49.892;18.914;2023-07-31T07:17:29;98472.13;;;24.13;45.36
82035;BME280;71599;49.892;18.914;2023-07-31T07:22:30;98475.50;;;22.99;48.54
82035;BME280;71599;49.892;18.914;2023-07-31T07:27:31;98470.50;;;22.82;49.68
82035;BME280;71599;49.892;18.914;2023-07-31T07:32:34;98465.03;;;23.47;49.26
82035;BME280;71599;49.892;18.914;2023-07-31T07:37:34;98461.25;;;24.37;45.89
82035;BME280;71599;49.892;18.914;2023-07-31T07:42:35;98464.56;;;24.23;44.40
82035;BME280;71599;49.892;18.914;2023-07-31T07:47:38;98464.88;;;24.56;45.21
82035;BME280;71599;49.892;18.914;2023-07-31T07:52:39;98476.22;;;24.21;45.61
82035;BME280;71599;49.892;18.914;2023-07-31T07:57:40;98466.47;;;23.95;44.33
82035;BME280;71599;49.892;18.914;2023-07-31T08:02:42;98478.91;;;24.03;46.18
82035;BME280;71599;49.892;18.914;2023-07-31T08:07:44;98462.81;;;25.15;43.57
82035;BME280;71599;49.892;18.914;2023-07-31T08:12:45;98463.50;;;25.55;41.72
82035;BME280;71599;49.892;18.914;2023-07-31T08:17:47;98458.09;;;26.45;39.98
82035;BME280;71599;49.892;18.914;2023-07-31T08:22:48;98458.59;;;26.67;38.76
82035;BME280;71599;49.892;18.914;2023-07-31T08:27:49;98461.25;;;26.71;41.33
82035;BME280;71599;49.892;18.914;2023-07-31T08:32:51;98464.47;;;25.94;40.04
82035;BME280;71599;49.892;18.914;2023-07-31T08:37:52;98473.03;;;26.00;41.78
82035;BME280;71599;49.892;18.914;2023-07-31T08:42:54;98469.97;;;25.70;40.68
82035;BME280;71599;49.892;18.914;2023-07-31T08:47:57;98474.94;;;25.84;42.27
82035;BME280;71599;49.892;18.914;2023-07-31T08:53:00;98473.97;;;26.48;39.87
82035;BME280;71599;49.892;18.914;2023-07-31T08:58:03;98469.66;;;26.71;39.31
82035;BME280;71599;49.892;18.914;2023-07-31T09:03:09;98461.34;;;27.09;37.29
82035;BME280;71599;49.892;18.914;2023-07-31T09:08:11;98441.41;;;27.07;40.01
82035;BME280;71599;49.892;18.914;2023-07-31T09:13:13;98437.25;;;26.70;38.65
82035;BME280;71599;49.892;18.914;2023-07-31T09:18:15;98444.56;;;26.76;40.29
82035;BME280;71599;49.892;18.914;2023-07-31T09:23:16;98448.88;;;26.53;39.71
82035;BME280;71599;49.892;18.914;2023-07-31T09:28:17;98441.44;;;26.98;37.34
82035;BME280;71599;49.892;18.914;2023-07-31T09:33:19;98448.44;;;26.46;38.53
82035;BME280;71599;49.892;18.914;2023-07-31T09:38:20;98437.41;;;26.00;38.80
82035;BME280;71599;49.892;18.914;2023-07-31T09:43:22;98433.56;;;25.89;39.16
82035;BME280;71599;49.892;18.914;2023-07-31T09:48:24;98438.31;;;25.55;39.66
82035;BME280;71599;49.892;18.914;2023-07-31T09:53:28;98421.47;;;25.64;36.63
82035;BME280;71599;49.892;18.914;2023-07-31T09:58:29;98418.06;;;24.87;38.63
82035;BME280;71599;49.892;18.914;2023-07-31T10:03:36;98408.44;;;24.70;39.51
82035;BME280;71599;49.892;18.914;2023-07-31T10:08:39;98414.69;;;25.20;38.32
82035;BME280;71599;49.892;18.914;2023-07-31T10:13:41;98413.41;;;25.66;38.25
82035;BME280;71599;49.892;18.914;2023-07-31T10:18:45;98402.88;;;26.03;38.78
82035;BME280;71599;49.892;18.914;2023-07-31T10:23:46;98395.72;;;25.42;38.64
82035;BME280;71599;49.892;18.914;2023-07-31T10:28:48;98398.19;;;26.42;35.31
82035;BME280;71599;49.892;18.914;2023-07-31T10:33:52;98396.78;;;27.33;34.39
82035;BME280;71599;49.892;18.914;2023-07-31T10:38:55;98385.78;;;27.44;32.78
82035;BME280;71599;49.892;18.914;2023-07-31T10:43:58;98389.09;;;27.19;32.33
82035;BME280;71599;49.892;18.914;2023-07-31T10:49:01;98380.88;;;27.30;31.40
82035;BME280;71599;49.892;18.914;2023-07-31T10:54:12;98374.50;;;27.29;36.42
82035;BME280;71599;49.892;18.914;2023-07-31T10:59:13;98373.16;;;26.86;34.10
82035;BME280;71599;49.892;18.914;2023-07-31T11:04:22;98367.41;;;27.58;31.42
82035;BME280;71599;49.892;18.914;2023-07-31T11:09:24;98359.53;;;27.47;33.87
82035;BME280;71599;49.892;18.914;2023-07-31T11:14:25;98359.31;;;27.21;31.79
82035;BME280;71599;49.892;18.914;2023-07-31T11:19:27;98347.06;;;27.63;32.32
82035;BME280;71599;49.892;18.914;2023-07-31T11:24:28;98350.22;;;27.85;33.21
82035;BME280;71599;49.892;18.914;2023-07-31T11:29:29;98354.44;;;27.46;33.34
82035;BME280;71599;49.892;18.914;2023-07-31T11:34:32;98336.97;;;27.71;31.34
82035;BME280;71599;49.892;18.914;2023-07-31T11:39:32;98347.59;;;27.96;30.69
82035;BME280;71599;49.892;18.914;2023-07-31T11:44:42;98344.53;;;27.35;30.79
82035;BME280;71599;49.892;18.914;2023-07-31T11:49:45;98340.41;;;27.46;33.00
82035;BME280;71599;49.892;18.914;2023-07-31T11:54:46;98335.56;;;26.93;31.83
82035;BME280;71599;49.892;18.914;2023-07-31T11:59:47;98330.06;;;26.98;33.39
82035;BME280;71599;49.892;18.914;2023-07-31T12:04:50;98328.91;;;27.05;31.35
82035;BME280;71599;49.892;18.914;2023-07-31T12:09:52;98310.19;;;26.73;30.12
82035;BME280;71599;49.892;18.914;2023-07-31T12:14:55;98306.69;;;26.39;32.88
82035;BME280;71599;49.892;18.914;2023-07-31T12:19:57;98301.31;;;26.74;32.94
82035;BME280;71599;49.892;18.914;2023-07-31T12:24:58;98299.41;;;26.56;34.39
82035;BME280;71599;49.892;18.914;2023-07-31T12:29:59;98287.66;;;26.43;34.98
82035;BME280;71599;49.892;18.914;2023-07-31T12:35:06;98283.84;;;26.55;31.46
82035;BME280;71599;49.892;18.914;2023-07-31T12:40:08;98271.47;;;26.47;33.31
82035;BME280;71599;49.892;18.914;2023-07-31T12:45:09;98274.28;;;27.15;33.41
82035;BME280;71599;49.892;18.914;2023-07-31T12:50:11;98275.81;;;27.16;32.59
82035;BME280;71599;49.892;18.914;2023-07-31T12:55:12;98269.13;;;27.28;33.55
82035;BME280;71599;49.892;18.914;2023-07-31T13:00:14;98265.72;;;27.33;34.15
82035;BME280;71599;49.892;18.914;2023-07-31T13:05:16;98274.81;;;26.75;33.73
82035;BME280;71599;49.892;18.914;2023-07-31T13:10:17;98263.09;;;25.91;34.95
82035;BME280;71599;49.892;18.914;2023-07-31T13:15:18;98261.13;;;26.15;35.62
82035;BME280;71599;49.892;18.914;2023-07-31T13:20:20;98259.41;;;25.84;34.74
82035;BME280;71599;49.892;18.914;2023-07-31T13:25:21;98247.41;;;25.60;35.30
82035;BME280;71599;49.892;18.914;2023-07-31T13:30:22;98247.91;;;26.06;36.90
82035;BME280;71599;49.892;18.914;2023-07-31T13:35:25;98237.31;;;26.73;35.79
82035;BME280;71599;49.892;18.914;2023-07-31T13:40:26;98234.94;;;26.56;33.94
82035;BME280;71599;49.892;18.914;2023-07-31T13:45:26;98230.16;;;26.72;33.09
82035;BME280;71599;49.892;18.914;2023-07-31T13:50:29;98240.53;;;26.18;34.50
82035;BME280;71599;49.892;18.914;2023-07-31T13:55:30;98236.22;;;25.60;36.39
82035;BME280;71599;49.892;18.914;2023-07-31T14:00:31;98238.16;;;25.36;36.12
82035;BME280;71599;49.892;18.914;2023-07-31T14:05:33;98243.53;;;24.97;35.96
82035;BME280;71599;49.892;18.914;2023-07-31T14:10:34;98242.00;;;24.96;38.16
82035;BME280;71599;49.892;18.914;2023-07-31T14:15:35;98232.22;;;24.92;36.99
82035;BME280;71599;49.892;18.914;2023-07-31T14:20:38;98239.66;;;24.86;38.29
82035;BME280;71599;49.892;18.914;2023-07-31T14:25:39;98238.88;;;24.85;39.09
82035;BME280;71599;49.892;18.914;2023-07-31T14:30:40;98234.22;;;25.00;37.74
82035;BME280;71599;49.892;18.914;2023-07-31T14:35:42;98240.47;;;24.95;37.39
82035;BME280;71599;49.892;18.914;2023-07-31T14:40:43;98226.44;;;25.04;37.55
82035;BME280;71599;49.892;18.914;2023-07-31T14:45:44;98235.47;;;24.99;37.44
82035;BME280;71599;49.892;18.914;2023-07-31T14:50:47;98231.91;;;24.90;37.75
82035;BME280;71599;49.892;18.914;2023-07-31T14:55:48;98233.31;;;24.67;37.56
82035;BME280;71599;49.892;18.914;2023-07-31T15:00:49;98232.25;;;24.55;39.20
82035;BME280;71599;49.892;18.914;2023-07-31T15:05:51;98229.75;;;24.30;39.63
82035;BME280;71599;49.892;18.914;2023-07-31T15:10:52;98219.69;;;24.33;39.60
82035;BME280;71599;49.892;18.914;2023-07-31T15:15:53;98213.50;;;24.29;39.09
82035;BME280;71599;49.892;18.914;2023-07-31T15:20:55;98209.09;;;24.09;40.01
82035;BME280;71599;49.892;18.914;2023-07-31T15:25:56;98204.75;;;24.17;40.42
82035;BME280;71599;49.892;18.914;2023-07-31T15:30:57;98206.63;;;24.48;39.42
82035;BME280;71599;49.892;18.914;2023-07-31T15:36:00;98188.78;;;24.54;41.00
82035;BME280;71599;49.892;18.914;2023-07-31T15:41:01;98191.91;;;24.56;39.83
82035;BME280;71599;49.892;18.914;2023-07-31T15:46:02;98184.94;;;24.52;40.55
82035;BME280;71599;49.892;18.914;2023-07-31T15:51:04;98179.34;;;24.43;40.33
82035;BME280;71599;49.892;18.914;2023-07-31T15:56:06;98179.66;;;24.45;40.65
82035;BME280;71599;49.892;18.914;2023-07-31T16:01:07;98179.81;;;24.41;41.34
82035;BME280;71599;49.892;18.914;2023-07-31T16:06:10;98176.72;;;24.39;41.48
82035;BME280;71599;49.892;18.914;2023-07-31T16:11:11;98171.91;;;24.40;40.58
82035;BME280;71599;49.892;18.914;2023-07-31T16:16:12;98169.44;;;24.33;41.66
82035;BME280;71599;49.892;18.914;2023-07-31T16:21:15;98162.59;;;24.24;41.59
82035;BME280;71599;49.892;18.914;2023-07-31T16:26:16;98154.38;;;24.30;41.00
82035;BME280;71599;49.892;18.914;2023-07-31T16:31:17;98154.22;;;24.15;42.03
82035;BME280;71599;49.892;18.914;2023-07-31T16:36:19;98160.41;;;23.92;42.94
82035;BME280;71599;49.892;18.914;2023-07-31T16:41:21;98140.38;;;23.66;42.64
82035;BME280;71599;49.892;18.914;2023-07-31T16:46:22;98137.13;;;23.59;43.23
82035;BME280;71599;49.892;18.914;2023-07-31T16:51:25;98138.94;;;23.53;42.99
82035;BME280;71599;49.892;18.914;2023-07-31T16:56:26;98137.66;;;23.35;42.46
82035;BME280;71599;49.892;18.914;2023-07-31T17:01:27;98134.97;;;23.23;42.88
82035;BME280;71599;49.892;18.914;2023-07-31T17:06:30;98136.31;;;23.09;42.98
82035;BME280;71599;49.892;18.914;2023-07-31T17:11:31;98141.91;;;23.09;45.15
82035;BME280;71599;49.892;18.914;2023-07-31T17:16:32;98142.22;;;23.11;44.37
82035;BME280;71599;49.892;18.914;2023-07-31T17:21:35;98134.16;;;23.13;44.53
82035;BME280;71599;49.892;18.914;2023-07-31T17:26:36;98126.66;;;22.92;43.05
82035;BME280;71599;49.892;18.914;2023-07-31T17:31:37;98131.00;;;22.71;44.02
82035;BME280;71599;49.892;18.914;2023-07-31T17:36:39;98131.31;;;22.64;45.51
82035;BME280;71599;49.892;18.914;2023-07-31T17:41:40;98135.25;;;22.54;45.31
82035;BME280;71599;49.892;18.914;2023-07-31T17:46:41;98132.03;;;22.34;46.10
82035;BME280;71599;49.892;18.914;2023-07-31T17:51:44;98131.72;;;22.32;47.11
82035;BME280;71599;49.892;18.914;2023-07-31T17:56:45;98133.38;;;22.29;47.28
82035;BME280;71599;49.892;18.914;2023-07-31T18:01:46;98124.78;;;22.14;48.19
82035;BME280;71599;49.892;18.914;2023-07-31T18:06:48;98125.91;;;22.04;48.73
82035;BME280;71599;49.892;18.914;2023-07-31T18:11:49;98136.09;;;21.85;50.20
82035;BME280;71599;49.892;18.914;2023-07-31T18:16:50;98133.84;;;21.71;50.37
82035;BME280;71599;49.892;18.914;2023-07-31T18:21:52;98136.22;;;21.60;49.71
82035;BME280;71599;49.892;18.914;2023-07-31T18:26:53;98130.66;;;21.35;49.88
82035;BME280;71599;49.892;18.914;2023-07-31T18:31:54;98146.78;;;21.15;51.12
82035;BME280;71599;49.892;18.914;2023-07-31T18:36:57;98141.78;;;20.97;50.96
82035;BME280;71599;49.892;18.914;2023-07-31T18:41:58;98139.88;;;20.81;50.79
82035;BME280;71599;49.892;18.914;2023-07-31T18:46:59;98139.19;;;20.64;51.88
82035;BME280;71599;49.892;18.914;2023-07-31T18:52:01;98132.47;;;20.37;53.51
82035;BME280;71599;49.892;18.914;2023-07-31T18:57:02;98137.53;;;19.97;55.91
82035;BME280;71599;49.892;18.914;2023-07-31T19:02:04;98149.88;;;19.79;56.09
82035;BME280;71599;49.892;18.914;2023-07-31T19:07:06;98151.72;;;19.70;55.47
82035;BME280;71599;49.892;18.914;2023-07-31T19:12:07;98164.19;;;19.62;55.82
82035;BME280;71599;49.892;18.914;2023-07-31T19:17:08;98155.63;;;19.40;57.05
82035;BME280;71599;49.892;18.914;2023-07-31T19:22:11;98153.19;;;19.26;56.42
82035;BME280;71599;49.892;18.914;2023-07-31T19:27:12;98155.34;;;19.18;56.86
82035;BME280;71599;49.892;18.914;2023-07-31T19:32:13;98156.34;;;19.08;57.18
82035;BME280;71599;49.892;18.914;2023-07-31T19:37:15;98156.25;;;18.95;57.85
82035;BME280;71599;49.892;18.914;2023-07-31T19:42:16;98155.44;;;18.79;57.83
82035;BME280;71599;49.892;18.914;2023-07-31T19:47:17;98149.66;;;18.53;58.15
82035;BME280;71599;49.892;18.914;2023-07-31T19:52:19;98151.88;;;18.42;58.74
82035;BME280;71599;49.892;18.914;2023-07-31T19:57:20;98138.97;;;18.36;58.73
82035;BME280;71599;49.892;18.914;2023-07-31T20:02:21;98140.59;;;18.33;58.36
82035;BME280;71599;49.892;18.914;2023-07-31T20:07:24;98129.31;;;18.24;59.04
82035;BME280;71599;49.892;18.914;2023-07-31T20:12:26;98131.16;;;18.11;58.92
82035;BME280;71599;49.892;18.914;2023-07-31T20:17:27;98132.28;;;17.94;59.97
82035;BME280;71599;49.892;18.914;2023-07-31T20:22:30;98125.03;;;17.80;59.72
82035;BME280;71599;49.892;18.914;2023-07-31T20:27:31;98124.25;;;17.79;60.17
82035;BME280;71599;49.892;18.914;2023-07-31T20:32:32;98133.94;;;17.68;59.41
82035;BME280;71599;49.892;18.914;2023-07-31T20:37:34;98129.38;;;17.58;60.14
82035;BME280;71599;49.892;18.914;2023-07-31T20:42:35;98116.81;;;17.53;58.51
82035;BME280;71599;49.892;18.914;2023-07-31T20:47:36;98112.94;;;17.51;58.56
82035;BME280;71599;49.892;18.914;2023-07-31T20:52:38;98104.56;;;17.54;58.42
82035;BME280;71599;49.892;18.914;2023-07-31T20:57:39;98098.53;;;17.59;58.28
82035;BME280;71599;49.892;18.914;2023-07-31T21:02:41;98085.50;;;17.60;58.24
82035;BME280;71599;49.892;18.914;2023-07-31T21:07:43;98076.56;;;17.52;59.63
82035;BME280;71599;49.892;18.914;2023-07-31T21:12:44;98069.56;;;17.48;58.61
82035;BME280;71599;49.892;18.914;2023-07-31T21:17:45;98059.38;;;17.41;58.59
82035;BME280;71599;49.892;18.914;2023-07-31T21:22:47;98066.53;;;17.38;58.36
82035;BME280;71599;49.892;18.914;2023-07-31T21:27:48;98063.06;;;17.34;58.46
82035;BME280;71599;49.892;18.914;2023-07-31T21:32:49;98054.97;;;17.24;59.33
82035;BME280;71599;49.892;18.914;2023-07-31T21:37:53;98049.31;;;17.08;59.69
82035;BME280;71599;49.892;18.914;2023-07-31T21:42:54;98049.81;;;17.02;59.89
82035;BME280;71599;49.892;18.914;2023-07-31T21:47:55;98042.88;;;16.91;60.89
82035;BME280;71599;49.892;18.914;2023-07-31T21:52:57;98043.25;;;16.93;60.09
82035;BME280;71599;49.892;18.914;2023-07-31T21:57:58;98034.97;;;16.93;59.75
82035;BME280;71599;49.892;18.914;2023-07-31T22:02:59;98034.56;;;16.94;59.75
82035;BME280;71599;49.892;18.914;2023-07-31T22:08:01;98029.41;;;16.96;59.69
82035;BME280;71599;49.892;18.914;2023-07-31T22:13:02;98015.59;;;16.96;60.43
82035;BME280;71599;49.892;18.914;2023-07-31T22:18:03;98017.50;;;16.99;59.24
82035;BME280;71599;49.892;18.914;2023-07-31T22:23:06;98009.22;;;16.99;59.70
82035;BME280;71599;49.892;18.914;2023-07-31T22:28:07;98002.25;;;16.91;59.70
82035;BME280;71599;49.892;18.914;2023-07-31T22:33:08;98003.78;;;16.96;59.69
82035;BME280;71599;49.892;18.914;2023-07-31T22:38:10;98003.63;;;17.03;59.72
82035;BME280;71599;49.892;18.914;2023-07-31T22:43:11;97981.44;;;17.10;59.71
82035;BME280;71599;49.892;18.914;2023-07-31T22:48:13;97992.44;;;17.14;59.67
82035;BME280;71599;49.892;18.914;2023-07-31T22:53:15;97985.72;;;17.15;59.14
82035;BME280;71599;49.892;18.914;2023-07-31T22:58:16;97983.72;;;17.15;59.02
82035;BME280;71599;49.892;18.914;2023-07-31T23:03:17;97968.91;;;17.05;60.16
82035;BME280;71599;49.892;18.914;2023-07-31T23:08:20;97970.88;;;17.05;61.26
82035;BME280;71599;49.892;18.914;2023-07-31T23:13:20;97968.84;;;17.09;59.60
82035;BME280;71599;49.892;18.914;2023-07-31T23:18:22;97978.38;;;17.04;59.64
82035;BME280;71599;49.892;18.914;2023-07-31T23:23:24;97971.28;;;17.03;60.45
82035;BME280;71599;49.892;18.914;2023-07-31T23:28:26;97961.41;;;17.06;59.57
82035;BME280;71599;49.892;18.914;2023-07-31T23:33:26;97949.22;;;17.03;60.18
82035;BME280;71599;49.892;18.914;2023-07-31T23:38:29;97956.88;;;16.96;61.59
82035;BME280;71599;49.892;18.914;2023-07-31T23:43:30;97951.63;;;17.01;60.44
82035;BME280;71599;49.892;18.914;2023-07-31T23:48:31;97944.19;;;16.98;60.14
82035;BME280;71599;49.892;18.914;2023-07-31T23:53:33;97935.91;;;16.98;59.32
82035;BME280;71599;49.892;18.914;2023-07-31T23:58:34;97938.38;;;16.93;59.99
